createdAt,value
2018-03-18T00:00:10.947Z,47.50
2018-03-18T00:02:39.351Z,47.00
2018-03-18T00:05:07.024Z,47.00
2018-03-18T00:07:34.650Z,47.00
2018-03-18T00:10:02.965Z,46.80
2018-03-18T00:12:30.720Z,46.80
2018-03-18T00:14:59.001Z,47.20
2018-03-18T00:17:26.539Z,46.60
2018-03-18T00:19:54.076Z,47.30
2018-03-18T00:22:21.652Z,46.80
2018-03-18T00:24:49.223Z,46.80
2018-03-18T00:27:16.884Z,47.20
2018-03-18T00:29:44.456Z,46.80
2018-03-18T00:32:11.990Z,47.40
2018-03-18T00:34:39.528Z,47.50
2018-03-18T00:37:07.120Z,46.70
2018-03-18T00:39:34.644Z,46.30
2018-03-18T00:42:03.156Z,46.80
2018-03-18T00:44:30.692Z,46.30
2018-03-18T00:46:58.213Z,46.30
2018-03-18T00:49:25.850Z,46.80
2018-03-18T00:52:01.048Z,46.40
2018-03-18T00:54:28.649Z,46.30
2018-03-18T00:56:56.401Z,46.20
2018-03-18T00:59:23.924Z,46.10
2018-03-18T01:01:51.523Z,46.00
2018-03-18T01:04:19.075Z,45.90
2018-03-18T01:06:46.673Z,46.20
2018-03-18T01:09:14.207Z,46.30
2018-03-18T01:11:41.846Z,46.10
2018-03-18T01:14:09.616Z,46.20
2018-03-18T01:16:37.152Z,46.30
2018-03-18T01:19:05.567Z,46.40
2018-03-18T01:21:33.097Z,46.40
2018-03-18T01:24:01.535Z,46.30
2018-03-18T01:26:29.168Z,46.30
2018-03-18T01:28:56.726Z,46.40
2018-03-18T01:31:24.286Z,46.00
2018-03-18T01:33:52.039Z,46.50
2018-03-18T01:36:19.583Z,46.00
2018-03-18T01:38:47.127Z,46.40
2018-03-18T01:41:15.424Z,46.50
2018-03-18T01:43:43.868Z,46.10
2018-03-18T01:46:11.396Z,46.10
2018-03-18T01:48:38.955Z,46.50
2018-03-18T01:51:06.666Z,46.60
2018-03-18T01:53:35.063Z,46.00
2018-03-18T01:56:02.582Z,45.90
2018-03-18T01:58:30.263Z,46.50
2018-03-18T02:00:58.670Z,46.50
2018-03-18T02:03:26.262Z,46.50
2018-03-18T02:05:53.824Z,46.30
2018-03-18T02:08:21.368Z,46.20
2018-03-18T02:10:49.009Z,46.40
2018-03-18T02:13:16.527Z,46.40
2018-03-18T02:15:45.074Z,46.70
2018-03-18T02:18:12.599Z,46.70
2018-03-18T02:20:40.188Z,46.70
2018-03-18T02:23:07.743Z,46.70
2018-03-18T02:25:35.310Z,46.60
2018-03-18T02:28:02.845Z,46.60
2018-03-18T02:30:30.404Z,46.80
2018-03-18T02:32:58.082Z,46.80
2018-03-18T02:35:25.606Z,46.60
2018-03-18T02:37:53.145Z,46.70
2018-03-18T02:40:22.179Z,47.10
2018-03-18T02:42:49.773Z,47.10
2018-03-18T02:45:17.391Z,46.50
2018-03-18T02:47:44.921Z,46.50
2018-03-18T02:50:13.222Z,46.70
2018-03-18T02:52:40.854Z,46.70
2018-03-18T02:55:08.442Z,46.90
2018-03-18T02:57:36.125Z,46.60
2018-03-18T03:00:03.776Z,46.60
2018-03-18T03:02:31.325Z,46.60
2018-03-18T03:04:58.872Z,47.00
2018-03-18T03:07:26.396Z,46.50
2018-03-18T03:09:53.997Z,46.50
2018-03-18T03:12:21.797Z,46.30
2018-03-18T03:14:49.479Z,46.20
2018-03-18T03:17:17.012Z,46.20
2018-03-18T03:19:44.701Z,46.50
2018-03-18T03:22:12.323Z,46.20
2018-03-18T03:24:39.848Z,46.00
2018-03-18T03:27:08.147Z,46.00
2018-03-18T03:29:35.713Z,46.00
2018-03-18T03:32:03.250Z,46.20
2018-03-18T03:34:30.782Z,46.40
2018-03-18T03:36:58.319Z,46.50
2018-03-18T03:39:25.864Z,46.40
2018-03-18T03:41:53.392Z,46.40
2018-03-18T03:44:20.911Z,46.70
2018-03-18T03:46:48.440Z,46.70
2018-03-18T03:49:15.984Z,46.40
2018-03-18T03:51:43.523Z,46.50
2018-03-18T03:54:11.069Z,46.20
2018-03-18T03:56:38.620Z,46.50
2018-03-18T03:59:06.216Z,46.40
2018-03-18T04:01:33.759Z,46.20
2018-03-18T04:04:01.542Z,45.90
2018-03-18T04:06:29.085Z,46.20
2018-03-18T04:08:57.383Z,46.20
2018-03-18T04:11:25.057Z,46.20
2018-03-18T04:13:52.596Z,46.30
2018-03-18T04:16:20.126Z,45.90
2018-03-18T04:18:48.662Z,46.50
2018-03-18T04:21:16.219Z,46.50
2018-03-18T04:23:43.863Z,46.50
2018-03-18T04:26:11.399Z,46.40
2018-03-18T04:28:39.675Z,46.10
2018-03-18T04:31:07.993Z,46.10
2018-03-18T04:33:35.631Z,46.20
2018-03-18T04:36:03.286Z,46.50
2018-03-18T04:38:30.846Z,46.50
2018-03-18T04:40:58.406Z,46.30
2018-03-18T04:43:26.066Z,46.50
2018-03-18T04:45:53.603Z,46.20
2018-03-18T04:48:21.131Z,46.00
2018-03-18T04:50:49.003Z,46.50
2018-03-18T04:53:16.532Z,46.30
2018-03-18T04:55:44.057Z,46.30
2018-03-18T04:58:11.615Z,46.10
2018-03-18T05:00:39.158Z,46.10
2018-03-18T05:03:06.833Z,45.80
2018-03-18T05:05:34.346Z,45.80
2018-03-18T05:08:02.045Z,46.30
2018-03-18T05:10:29.664Z,46.10
2018-03-18T05:12:58.126Z,47.00
2018-03-18T05:15:25.662Z,46.80
2018-03-18T05:17:53.485Z,46.40
2018-03-18T05:20:21.018Z,46.30
2018-03-18T05:22:48.556Z,46.10
2018-03-18T05:25:16.083Z,45.90
2018-03-18T05:27:44.371Z,45.80
2018-03-18T05:30:11.988Z,45.80
2018-03-18T05:32:39.517Z,46.30
2018-03-18T05:35:07.134Z,45.90
2018-03-18T05:37:35.456Z,45.80
2018-03-18T05:40:03.228Z,45.70
2018-03-18T05:42:30.845Z,45.60
2018-03-18T05:44:58.548Z,45.90
2018-03-18T05:47:26.061Z,46.70
2018-03-18T05:49:54.352Z,46.10
2018-03-18T05:52:21.904Z,46.10
2018-03-18T05:54:49.441Z,45.90
2018-03-18T05:57:16.972Z,45.90
2018-03-18T05:59:44.511Z,46.10
2018-03-18T06:02:12.072Z,45.90
2018-03-18T06:04:39.695Z,45.80
2018-03-18T06:07:07.360Z,45.70
2018-03-18T06:09:35.747Z,45.40
2018-03-18T06:12:03.305Z,45.40
2018-03-18T06:14:30.842Z,45.80
2018-03-18T06:16:58.376Z,46.00
2018-03-18T06:19:25.918Z,46.00
2018-03-18T06:21:53.576Z,45.70
2018-03-18T06:24:21.144Z,45.80
2018-03-18T06:26:49.445Z,45.40
2018-03-18T06:29:16.992Z,45.40
2018-03-18T06:31:44.536Z,45.70
2018-03-18T06:34:12.092Z,45.40
2018-03-18T06:36:39.812Z,45.20
2018-03-18T06:39:07.343Z,45.60
2018-03-18T06:41:34.911Z,45.40
2018-03-18T06:44:02.466Z,45.70
2018-03-18T06:46:30.761Z,46.30
2018-03-18T06:48:58.329Z,45.80
2018-03-18T06:51:25.846Z,45.10
2018-03-18T06:53:53.379Z,45.20
2018-03-18T06:56:21.124Z,44.50
2018-03-18T06:58:48.687Z,44.60
2018-03-18T07:01:16.208Z,45.00
2018-03-18T07:03:43.781Z,44.80
2018-03-18T07:06:11.547Z,44.70
2018-03-18T07:08:39.090Z,44.40
2018-03-18T07:11:07.541Z,44.20
2018-03-18T07:13:35.120Z,44.20
2018-03-18T07:16:02.657Z,44.20
2018-03-18T07:18:30.273Z,44.20
2018-03-18T07:20:57.924Z,43.90
2018-03-18T07:23:25.457Z,43.80
2018-03-18T07:25:53.787Z,44.20
2018-03-18T07:28:21.356Z,44.20
2018-03-18T07:30:48.903Z,44.10
2018-03-18T07:33:16.437Z,44.50
2018-03-18T07:35:44.190Z,44.40
2018-03-18T07:38:11.781Z,44.10
2018-03-18T07:40:39.312Z,43.70
2018-03-18T07:43:06.859Z,43.40
2018-03-18T07:45:34.388Z,43.50
2018-03-18T07:48:01.955Z,43.90
2018-03-18T07:50:31.024Z,43.10
2018-03-18T07:52:58.748Z,43.10
2018-03-18T07:55:26.307Z,43.00
2018-03-18T07:57:53.962Z,42.50
2018-03-18T08:00:21.520Z,42.40
2018-03-18T08:02:49.057Z,42.80
2018-03-18T08:05:16.663Z,42.70
2018-03-18T08:07:44.190Z,42.80
2018-03-18T08:10:12.500Z,42.00
2018-03-18T08:12:40.059Z,42.00
2018-03-18T08:15:07.608Z,41.60
2018-03-18T08:17:35.134Z,41.60
2018-03-18T08:20:02.660Z,41.60
2018-03-18T08:22:30.192Z,41.30
2018-03-18T08:24:57.732Z,41.40
2018-03-18T08:27:25.263Z,40.90
2018-03-18T08:29:52.806Z,41.30
2018-03-18T08:32:20.514Z,41.10
2018-03-18T08:34:48.067Z,40.90
2018-03-18T08:37:15.611Z,40.80
2018-03-18T08:39:43.166Z,41.20
2018-03-18T08:42:11.568Z,40.30
2018-03-18T08:44:39.136Z,40.30
2018-03-18T08:47:06.716Z,40.00
2018-03-18T08:49:34.254Z,40.30
2018-03-18T08:52:01.794Z,40.50
2018-03-18T08:54:30.110Z,40.30
2018-03-18T08:56:57.844Z,40.30
2018-03-18T08:59:25.415Z,40.00
2018-03-18T09:01:52.985Z,39.70
2018-03-18T09:04:20.500Z,39.00
2018-03-18T09:06:49.044Z,38.50
2018-03-18T09:09:16.591Z,38.50
2018-03-18T09:11:44.148Z,39.00
2018-03-18T09:14:11.891Z,39.40
2018-03-18T09:16:39.435Z,39.50
2018-03-18T09:19:07.732Z,37.90
2018-03-18T09:21:35.330Z,37.90
2018-03-18T09:24:03.626Z,38.50
2018-03-18T09:26:31.239Z,38.20
2018-03-18T09:28:58.877Z,38.00
2018-03-18T09:31:26.401Z,37.50
2018-03-18T09:33:54.022Z,37.70
2018-03-18T09:36:21.560Z,37.30
2018-03-18T09:38:49.155Z,37.50
2018-03-18T09:41:16.773Z,36.70
2018-03-18T09:43:44.435Z,36.80
2018-03-18T09:46:12.000Z,37.10
2018-03-18T09:48:39.582Z,36.20
2018-03-18T09:51:07.120Z,36.00
2018-03-18T09:53:34.690Z,36.00
2018-03-18T09:56:02.241Z,36.40
2018-03-18T09:58:29.765Z,36.60
2018-03-18T10:00:57.308Z,35.70
2018-03-18T10:03:25.807Z,35.80
2018-03-18T10:05:54.132Z,35.50
2018-03-18T10:08:21.705Z,35.40
2018-03-18T10:10:49.319Z,34.90
2018-03-18T10:13:16.858Z,34.50
2018-03-18T10:15:45.173Z,34.30
2018-03-18T10:18:12.738Z,34.30
2018-03-18T10:20:40.311Z,33.60
2018-03-18T10:23:08.076Z,33.60
2018-03-18T10:25:35.654Z,33.70
2018-03-18T10:28:03.204Z,34.00
2018-03-18T10:30:30.761Z,33.70
2018-03-18T10:32:58.290Z,33.50
2018-03-18T10:35:25.818Z,33.50
2018-03-18T10:37:54.131Z,33.60
2018-03-18T10:40:21.663Z,33.60
2018-03-18T10:42:49.208Z,32.00
2018-03-18T10:45:17.645Z,32.50
2018-03-18T10:47:45.186Z,32.40
2018-03-18T10:50:12.759Z,32.40
2018-03-18T10:52:40.393Z,32.30
2018-03-18T10:55:08.151Z,32.80
2018-03-18T10:57:35.756Z,32.30
2018-03-18T11:00:03.498Z,31.60
2018-03-18T11:02:31.799Z,31.20
2018-03-18T11:04:59.417Z,31.60
2018-03-18T11:07:26.967Z,31.40
2018-03-18T11:09:55.347Z,31.30
2018-03-18T11:12:22.932Z,31.80
2018-03-18T11:14:50.656Z,32.00
2018-03-18T11:17:19.005Z,31.40
2018-03-18T11:19:48.098Z,31.50
2018-03-18T11:22:15.663Z,31.50
2018-03-18T11:24:43.223Z,31.20
2018-03-18T11:27:10.955Z,30.60
2018-03-18T11:29:38.689Z,30.80
2018-03-18T11:32:06.466Z,31.00
2018-03-18T11:34:34.010Z,31.00
2018-03-18T11:37:01.589Z,30.00
2018-03-18T11:39:29.405Z,30.20
2018-03-18T11:41:56.928Z,30.40
2018-03-18T11:44:24.614Z,30.30
2018-03-18T11:46:52.250Z,30.50
2018-03-18T11:49:19.777Z,30.00
2018-03-18T11:51:47.540Z,30.10
2018-03-18T11:54:15.076Z,29.90
2018-03-18T11:56:43.435Z,29.90
2018-03-18T11:59:10.958Z,29.90
2018-03-18T12:01:38.497Z,28.70
2018-03-18T12:04:06.042Z,29.30
2018-03-18T12:06:33.584Z,28.90
2018-03-18T12:09:01.189Z,29.00
2018-03-18T12:11:28.743Z,29.50
2018-03-18T12:13:56.324Z,29.40
2018-03-18T12:16:23.853Z,29.00
2018-03-18T12:18:51.408Z,28.60
2018-03-18T12:21:18.987Z,28.50
2018-03-18T12:23:46.569Z,28.60
2018-03-18T12:26:14.823Z,27.90
2018-03-18T12:28:42.483Z,28.50
2018-03-18T12:31:10.123Z,28.00
2018-03-18T12:33:37.817Z,27.10
2018-03-18T12:36:05.484Z,27.60
2018-03-18T12:38:33.035Z,27.90
2018-03-18T12:41:00.569Z,28.10
2018-03-18T12:43:29.977Z,27.40
2018-03-18T12:45:57.525Z,27.30
2018-03-18T12:48:25.081Z,27.60
2018-03-18T12:50:54.313Z,27.20
2018-03-18T12:53:21.900Z,27.30
2018-03-18T12:55:51.102Z,25.70
2018-03-18T12:58:18.655Z,25.60
2018-03-18T13:00:46.224Z,25.70
2018-03-18T13:03:14.548Z,25.40
2018-03-18T13:05:42.079Z,25.40
2018-03-18T13:08:09.800Z,25.20
2018-03-18T13:10:37.370Z,24.10
2018-03-18T13:13:05.292Z,23.80
2018-03-18T13:15:32.842Z,23.80
2018-03-18T13:18:00.530Z,23.30
2018-03-18T13:20:28.080Z,22.20
2018-03-18T13:22:55.802Z,22.80
2018-03-18T13:25:24.214Z,21.40
2018-03-18T13:27:51.761Z,21.40
2018-03-18T13:30:19.760Z,21.40
2018-03-18T13:32:47.408Z,21.30
2018-03-18T13:35:14.950Z,21.60
2018-03-18T13:37:42.935Z,21.10
2018-03-18T13:40:10.502Z,21.10
2018-03-18T13:42:38.070Z,20.70
2018-03-18T13:45:05.683Z,20.70
2018-03-18T13:47:34.185Z,20.90
2018-03-18T13:50:01.732Z,21.00
2018-03-18T13:52:29.593Z,19.80
2018-03-18T13:54:58.073Z,18.90
2018-03-18T13:57:26.372Z,19.90
2018-03-18T13:59:53.917Z,19.90
2018-03-18T14:02:21.506Z,19.70
2018-03-18T14:04:49.165Z,18.80
2018-03-18T14:07:16.721Z,19.80
2018-03-18T14:09:44.377Z,19.60
2018-03-18T14:12:12.052Z,19.30
2018-03-18T14:14:39.625Z,19.00
2018-03-18T14:17:07.157Z,19.00
2018-03-18T14:19:34.774Z,19.00
2018-03-18T14:22:02.320Z,18.70
2018-03-18T14:24:29.869Z,19.00
2018-03-18T14:26:57.605Z,18.50
2018-03-18T14:29:25.175Z,18.70
2018-03-18T14:31:52.708Z,19.10
2018-03-18T14:34:20.273Z,18.20
2018-03-18T14:36:47.899Z,18.30
2018-03-18T14:39:16.230Z,18.50
2018-03-18T14:41:43.812Z,18.50
2018-03-18T14:44:11.358Z,19.00
2018-03-18T14:46:39.040Z,18.10
2018-03-18T14:49:06.641Z,18.50
2018-03-18T14:51:34.231Z,18.70
2018-03-18T14:54:01.972Z,18.30
2018-03-18T14:56:29.634Z,18.60
2018-03-18T14:58:57.301Z,18.80
2018-03-18T15:01:24.948Z,19.10
2018-03-18T15:03:52.479Z,20.20
2018-03-18T15:06:20.779Z,19.50
2018-03-18T15:08:48.463Z,19.50
2018-03-18T15:11:16.022Z,19.60
2018-03-18T15:13:43.559Z,19.40
2018-03-18T15:16:11.112Z,19.80
2018-03-18T15:18:38.666Z,19.80
2018-03-18T15:21:06.219Z,20.30
2018-03-18T15:23:33.769Z,20.30
2018-03-18T15:26:02.092Z,19.90
2018-03-18T15:28:29.699Z,19.90
2018-03-18T15:30:57.333Z,20.20
2018-03-18T15:33:24.881Z,20.60
2018-03-18T15:35:52.461Z,20.50
2018-03-18T15:38:20.063Z,20.90
2018-03-18T15:40:47.653Z,21.00
2018-03-18T15:43:15.190Z,21.00
2018-03-18T15:45:42.754Z,20.70
2018-03-18T15:48:10.317Z,21.50
2018-03-18T15:50:37.852Z,21.10
2018-03-18T15:53:05.401Z,20.50
2018-03-18T15:55:33.050Z,21.10
2018-03-18T15:58:01.408Z,21.70
2018-03-18T16:00:28.957Z,21.20
2018-03-18T16:02:56.649Z,21.80
2018-03-18T16:05:24.363Z,21.80
2018-03-18T16:07:51.905Z,21.70
2018-03-18T16:10:19.560Z,21.50
2018-03-18T16:12:47.099Z,21.30
2018-03-18T16:15:14.698Z,22.10
2018-03-18T16:17:42.479Z,22.60
2018-03-18T16:20:10.135Z,22.70
2018-03-18T16:22:37.768Z,22.90
2018-03-18T16:25:05.318Z,22.70
2018-03-18T16:27:33.641Z,23.40
2018-03-18T16:30:13.277Z,23.40
2018-03-18T16:32:40.865Z,23.00
2018-03-18T16:35:08.804Z,23.70
2018-03-18T16:37:36.364Z,22.90
2018-03-18T16:40:03.940Z,23.10
2018-03-18T16:42:31.566Z,23.30
2018-03-18T16:44:59.193Z,23.40
2018-03-18T16:47:26.899Z,23.40
2018-03-18T16:49:54.648Z,23.90
2018-03-18T16:52:22.208Z,23.60
2018-03-18T16:54:50.193Z,23.60
2018-03-18T16:57:17.804Z,23.50
2018-03-18T16:59:46.223Z,24.90
2018-03-18T17:02:13.768Z,24.80
2018-03-18T17:04:41.331Z,25.20
2018-03-18T17:07:08.930Z,25.20
2018-03-18T17:09:36.525Z,25.20
2018-03-18T17:12:05.931Z,25.70
2018-03-18T17:14:33.509Z,25.70
2018-03-18T17:17:01.082Z,25.60
2018-03-18T17:19:28.674Z,25.80
2018-03-18T17:21:56.821Z,26.00
2018-03-18T17:24:24.995Z,26.10
2018-03-18T17:26:52.548Z,26.20
2018-03-18T17:29:20.109Z,26.30
2018-03-18T17:31:47.874Z,26.90
2018-03-18T17:34:15.448Z,26.80
2018-03-18T17:36:43.031Z,27.30
2018-03-18T17:39:10.777Z,27.40
2018-03-18T17:41:38.322Z,27.20
2018-03-18T17:44:05.916Z,28.10
2018-03-18T17:46:45.406Z,27.70
2018-03-18T17:49:24.674Z,27.50
2018-03-18T17:52:04.198Z,27.40
2018-03-18T17:54:53.350Z,28.40
2018-03-18T17:57:20.952Z,27.90
2018-03-18T17:59:48.532Z,28.10
2018-03-18T18:02:16.901Z,28.40
2018-03-18T18:04:45.289Z,28.30
2018-03-18T18:07:13.137Z,28.30
2018-03-18T18:09:40.697Z,28.20
2018-03-18T18:12:08.332Z,28.50
2018-03-18T18:14:35.936Z,28.50
2018-03-18T18:17:03.533Z,28.40
2018-03-18T18:19:31.100Z,28.90
2018-03-18T18:21:58.760Z,28.70
2018-03-18T18:24:26.487Z,28.70
2018-03-18T18:26:54.171Z,29.10
2018-03-18T18:29:21.784Z,29.40
2018-03-18T18:31:49.357Z,29.40
2018-03-18T18:34:17.672Z,29.40
2018-03-18T18:36:45.241Z,29.30
2018-03-18T18:39:12.825Z,29.20
2018-03-18T18:41:40.413Z,29.70
2018-03-18T18:44:07.993Z,30.00
2018-03-18T18:46:35.735Z,31.20
2018-03-18T18:49:04.094Z,32.30
2018-03-18T18:51:31.680Z,32.20
2018-03-18T18:53:59.273Z,32.50
2018-03-18T18:56:26.948Z,33.00
2018-03-18T18:58:54.656Z,33.20
2018-03-18T19:01:23.000Z,34.10
2018-03-18T19:03:50.677Z,34.00
2018-03-18T19:06:18.267Z,34.10
2018-03-18T19:08:45.883Z,33.80
2018-03-18T19:11:13.489Z,33.50
2018-03-18T19:13:41.076Z,34.10
2018-03-18T19:16:08.773Z,34.20
2018-03-18T19:18:37.113Z,34.20
2018-03-18T19:21:04.689Z,34.20
2018-03-18T19:23:33.208Z,34.10
2018-03-18T19:26:00.762Z,34.10
2018-03-18T19:28:31.208Z,34.60
2018-03-18T19:30:59.724Z,34.00
2018-03-18T19:33:27.309Z,34.50
2018-03-18T19:35:54.914Z,34.60
2018-03-18T19:38:23.070Z,34.20
2018-03-18T19:40:51.527Z,34.30
2018-03-18T19:43:19.096Z,34.30
2018-03-18T19:45:46.682Z,34.30
2018-03-18T19:48:15.587Z,34.60
2018-03-18T19:50:43.161Z,34.70
2018-03-18T19:53:11.537Z,35.10
2018-03-18T19:55:40.141Z,34.70
2018-03-18T19:58:09.337Z,35.10
2018-03-18T20:00:36.948Z,34.70
2018-03-18T20:03:05.665Z,35.00
2018-03-18T20:05:33.226Z,34.80
2018-03-18T20:08:01.026Z,34.90
2018-03-18T20:10:28.630Z,35.20
2018-03-18T20:12:56.228Z,34.90
2018-03-18T20:15:23.851Z,34.90
2018-03-18T20:17:51.446Z,35.40
2018-03-18T20:20:19.066Z,35.20
2018-03-18T20:22:46.639Z,35.40
2018-03-18T20:25:14.835Z,35.90
2018-03-18T20:27:42.878Z,35.90
2018-03-18T20:30:10.485Z,35.90
2018-03-18T20:32:38.113Z,35.50
2018-03-18T20:35:06.297Z,35.50
2018-03-18T20:37:33.913Z,35.40
2018-03-18T20:40:01.594Z,35.90
2018-03-18T20:42:29.252Z,36.00
2018-03-18T20:44:57.085Z,36.20
2018-03-18T20:47:24.730Z,36.60
2018-03-18T20:49:52.331Z,36.90
2018-03-18T20:52:19.914Z,37.30
2018-03-18T20:54:47.510Z,37.30
2018-03-18T20:57:16.908Z,37.40
2018-03-18T20:59:44.513Z,38.00
2018-03-18T21:02:12.082Z,38.70
2018-03-18T21:04:39.945Z,38.80
2018-03-18T21:07:07.520Z,39.00
2018-03-18T21:09:35.083Z,39.20
2018-03-18T21:12:02.656Z,39.60
2018-03-18T21:14:30.384Z,40.00
2018-03-18T21:16:57.976Z,40.70
2018-03-18T21:19:25.539Z,40.50
2018-03-18T21:21:53.097Z,40.60
2018-03-18T21:24:20.956Z,41.00
2018-03-18T21:26:48.539Z,41.40
2018-03-18T21:29:17.276Z,41.30
2018-03-18T21:31:44.862Z,41.50
2018-03-18T21:34:12.444Z,41.90
2018-03-18T21:36:40.778Z,42.30
2018-03-18T21:39:08.698Z,42.30
2018-03-18T21:41:36.323Z,42.10
2018-03-18T21:44:03.948Z,42.20
2018-03-18T21:46:32.779Z,43.00
2018-03-18T21:49:00.431Z,43.00
2018-03-18T21:51:28.172Z,42.80
2018-03-18T21:53:55.744Z,43.20
2018-03-18T21:56:23.331Z,43.30
2018-03-18T21:58:50.921Z,43.40
2018-03-18T22:01:18.626Z,43.70
2018-03-18T22:03:46.410Z,44.10
2018-03-18T22:06:13.981Z,44.70
2018-03-18T22:08:41.712Z,44.60
2018-03-18T22:11:09.265Z,44.30
2018-03-18T22:13:36.953Z,44.60
2018-03-18T22:16:04.514Z,44.80
2018-03-18T22:18:32.070Z,45.20
2018-03-18T22:20:59.675Z,45.40
2018-03-18T22:23:27.246Z,45.60
2018-03-18T22:25:54.794Z,45.90
2018-03-18T22:28:23.105Z,46.40
2018-03-18T22:30:51.558Z,46.70
2018-03-18T22:33:19.955Z,46.70
2018-03-18T22:35:47.532Z,46.60
2018-03-18T22:38:15.064Z,46.80
2018-03-18T22:40:42.635Z,47.20
2018-03-18T22:43:10.242Z,47.20
2018-03-18T22:45:38.603Z,48.00
2018-03-18T22:48:06.190Z,47.90
2018-03-18T22:50:33.759Z,48.30
2018-03-18T22:53:01.298Z,48.50
2018-03-18T22:55:28.936Z,48.60
2018-03-18T22:57:56.484Z,48.30
2018-03-18T23:00:24.024Z,48.40
2018-03-18T23:02:51.781Z,48.80
2018-03-18T23:05:20.614Z,49.00
2018-03-18T23:07:48.231Z,49.00
2018-03-18T23:10:15.789Z,49.50
2018-03-18T23:12:43.318Z,49.30
2018-03-18T23:15:10.855Z,49.60
2018-03-18T23:17:38.518Z,50.10
2018-03-18T23:20:06.072Z,50.20
2018-03-18T23:22:33.718Z,50.50
2018-03-18T23:25:01.332Z,50.80
2018-03-18T23:27:29.640Z,51.20
2018-03-18T23:29:57.177Z,51.10
2018-03-18T23:32:24.916Z,51.40
2018-03-18T23:34:52.544Z,51.70
2018-03-18T23:37:20.100Z,51.90
2018-03-18T23:39:47.635Z,51.90
2018-03-18T23:42:15.176Z,52.40
2018-03-18T23:44:43.610Z,52.50
2018-03-18T23:47:11.436Z,52.50
2018-03-18T23:49:39.002Z,52.50
2018-03-18T23:52:06.516Z,53.00
2018-03-18T23:54:34.125Z,52.40
2018-03-18T23:57:01.705Z,53.00
2018-03-18T23:59:29.293Z,53.20
